Time;durP1;ratioP1;P1;durP2;ratioP2;P2;SDS_P1;SDS_P2;PMS_P1;PMS_P2;Temp;Humidity;BMP_temperature;BMP_pressure;BME280_temperature;BME280_humidity;BME280_pressure;Samples;Min_cycle;Max_cycle;Signal;HPM_P1;HPM_P2
2022/06/24 00:00:36;;;;;;;1.13;0.70;;;18.10;67.00;;;17.06;54.97;100023.31;9820016;29;96641;-83
2022/06/24 00:05:39;;;;;;;;;;;18.10;66.20;;;17.02;55.32;100030.13;9860452;29;98387;-84
2022/06/24 00:10:43;;;;;;;1.90;0.77;;;18.00;67.70;;;16.89;55.60;100022.16;9843333;29;96973;-83
2022/06/24 00:15:46;;;;;;;3.13;1.00;;;18.00;68.00;;;16.80;55.78;100024.25;9825891;29;96922;-83
2022/06/24 00:20:50;;;;;;;1.65;0.88;;;17.90;67.70;;;16.76;55.95;100028.41;9851522;29;96606;-85
2022/06/24 00:25:53;;;;;;;3.05;0.60;;;17.80;68.50;;;16.73;55.68;100026.16;9843477;29;96638;-84
2022/06/24 00:30:56;;;;;;;1.60;0.77;;;17.80;67.70;;;16.70;56.02;100031.94;9841013;29;96633;-83
2022/06/24 00:36:00;;;;;;;0.70;0.50;;;17.70;68.10;;;16.67;55.98;100026.13;9842504;29;96948;-83
2022/06/24 00:41:10;;;;;;;1.30;0.70;;;17.70;67.20;;;16.65;55.98;100020.16;9841788;29;96637;-83
2022/06/24 00:46:27;;;;;;;2.63;0.95;;;17.70;68.10;;;16.60;56.65;100029.66;9826629;29;98778;-83
2022/06/24 00:51:38;;;;;;;2.20;0.98;;;17.60;69.10;;;16.50;57.05;100028.47;9843852;29;96628;-83
2022/06/24 00:56:42;;;;;;;;;;;17.60;68.70;;;16.39;57.17;100019.19;9859309;29;96714;-83
2022/06/24 01:01:49;;;;;;;2.70;1.00;;;17.50;69.40;;;16.31;57.43;100017.56;9833572;29;96714;-83
2022/06/24 01:06:53;;;;;;;4.43;1.10;;;17.40;68.90;;;16.25;57.88;100017.56;9828735;29;96657;-83
2022/06/24 01:11:56;;;;;;;1.73;0.88;;;17.30;69.60;;;16.21;57.90;100014.50;9852185;29;96639;-83
2022/06/24 01:16:59;;;;;;;5.00;0.90;;;17.30;70.40;;;16.18;58.21;100019.44;9864589;29;96607;-83
2022/06/24 01:22:03;;;;;;;1.20;0.82;;;17.20;69.60;;;16.14;58.63;100029.75;9854602;29;96684;-82
2022/06/24 01:27:07;;;;;;;1.98;1.05;;;17.20;70.50;;;16.04;58.49;100034.72;9847505;29;96678;-83
2022/06/24 01:32:10;;;;;;;1.42;0.75;;;17.20;70.70;;;15.92;58.60;100022.97;9831348;29;96736;-83
2022/06/24 01:37:14;;;;;;;1.38;0.93;;;17.00;70.70;;;15.86;59.07;100023.78;9834901;29;96675;-84
2022/06/24 01:42:17;;;;;;;1.20;0.60;;;17.00;71.40;;;15.78;59.47;100019.47;9854274;29;96780;-84
2022/06/24 01:47:19;;;;;;;1.30;0.70;;;16.90;72.20;;;15.74;59.58;100015.56;9862092;29;98376;-84
2022/06/24 01:52:22;;;;;;;1.48;0.70;;;16.80;71.80;;;15.74;59.24;100018.22;9845302;29;98638;-84
2022/06/24 01:57:26;;;;;;;0.93;0.60;;;16.80;71.10;;;15.77;58.61;100010.63;9834416;29;96654;-84
2022/06/24 02:02:29;;;;;;;1.42;0.93;;;16.80;71.80;;;15.84;58.67;100012.47;9826493;29;98134;-85
2022/06/24 02:07:32;;;;;;;1.45;0.98;;;16.80;70.80;;;15.84;58.37;100012.47;9840983;29;96712;-84
2022/06/24 02:17:56;;;;;;;3.10;0.98;;;16.90;70.20;;;15.88;58.58;100013.69;9837178;29;98705;-84
2022/06/24 02:22:59;;;;;;;1.50;0.90;;;16.90;71.40;;;15.84;58.99;100007.94;9865524;29;96700;-84
2022/06/24 02:28:02;;;;;;;2.00;0.88;;;16.90;71.70;;;15.78;59.15;100016.81;9816043;29;98504;-84
2022/06/24 02:33:07;;;;;;;1.55;1.05;;;16.80;72.40;;;15.67;59.81;100018.22;9828140;29;96574;-84
2022/06/24 02:38:10;;;;;;;1.10;0.77;;;16.70;72.50;;;15.60;60.13;100013.88;9860583;29;96887;-84
2022/06/24 02:43:22;;;;;;;0.70;0.65;;;16.70;73.00;;;15.59;59.71;100010.34;9844474;29;96811;-84
2022/06/24 02:48:26;;;;;;;3.17;0.80;;;16.60;72.70;;;15.65;59.39;100008.72;9861185;29;96894;-83
2022/06/24 02:53:31;;;;;;;2.30;0.90;;;16.60;72.10;;;15.70;59.99;100007.09;9845419;29;96545;-82
2022/06/24 02:58:34;;;;;;;0.68;0.57;;;16.70;73.00;;;15.71;60.26;100008.75;9811987;29;96651;-82
2022/06/24 03:03:38;;;;;;;1.27;0.88;;;16.70;72.50;;;15.67;60.75;100012.88;9832153;29;96567;-82
2022/06/24 03:08:43;;;;;;;1.17;0.70;;;16.70;73.80;;;15.63;61.22;100016.16;9833438;29;96628;-82
2022/06/24 03:13:47;;;;;;;0.88;0.73;;;16.70;73.70;;;15.51;61.55;100015.91;9858168;29;96747;-82
2022/06/24 03:18:50;;;;;;;0.85;0.70;;;16.60;74.10;;;15.48;61.62;100030.53;9841094;29;98656;-83
2022/06/24 03:23:53;;;;;;;1.30;0.70;;;16.50;74.90;;;15.48;62.06;100032.41;9860674;29;96574;-83
2022/06/24 03:28:56;;;;;;;1.92;1.10;;;16.50;74.80;;;15.51;62.19;100019.41;9851514;29;96602;-83
2022/06/24 03:33:59;;;;;;;1.63;0.90;;;16.50;75.20;;;15.58;62.79;100015.91;9828325;29;96576;-83
2022/06/24 03:39:02;;;;;;;1.63;1.00;;;16.60;75.80;;;15.65;63.11;100024.81;9809911;29;96662;-84
2022/06/24 03:44:04;;;;;;;1.70;0.75;;;16.70;75.60;;;15.77;63.76;100028.53;9854727;29;96831;-83
2022/06/24 03:49:07;;;;;;;1.00;0.80;;;16.80;77.40;;;15.91;64.08;100026.69;9842967;29;96633;-85
2022/06/24 03:54:10;;;;;;;0.90;0.60;;;16.80;77.50;;;16.07;64.16;100028.91;9861583;29;96585;-86
2022/06/24 03:59:14;;;;;;;3.22;0.75;;;17.00;77.30;;;16.21;64.20;100029.75;9831065;29;96751;-85
2022/06/24 04:04:16;;;;;;;3.10;1.17;;;17.20;78.00;;;16.36;64.10;100033.00;9821316;29;97332;-85
2022/06/24 04:09:19;;;;;;;2.22;1.13;;;17.30;77.80;;;16.54;64.46;100040.41;9890237;29;97002;-85
2022/06/24 04:19:44;;;;;;;1.65;0.98;;;17.70;78.60;;;16.97;63.97;100037.19;9849992;29;97108;-83
2022/06/24 04:24:47;;;;;;;1.90;0.93;;;17.90;78.70;;;17.16;62.92;100038.97;9826612;29;96695;-83
2022/06/24 04:29:50;;;;;;;1.02;0.73;;;18.00;76.90;;;17.41;62.18;100036.34;9813270;29;96712;-84
2022/06/24 04:34:53;;;;;;;0.93;0.63;;;18.30;76.30;;;17.64;61.61;100039.28;9821871;29;97982;-84
2022/06/24 04:40:00;;;;;;;0.55;0.55;;;18.50;75.70;;;17.88;60.31;100037.69;9830060;29;96647;-84
2022/06/24 04:45:05;;;;;;;0.82;0.50;;;18.70;74.80;;;18.13;59.50;100036.84;9836459;29;96951;-84
2022/06/24 04:50:09;;;;;;;1.73;0.90;;;19.00;74.20;;;18.36;58.73;100034.34;9835462;29;97377;-84
2022/06/24 04:55:13;;;;;;;1.90;0.90;;;19.20;73.50;;;18.57;57.78;100046.53;9815309;29;96920;-84
2022/06/24 05:00:16;;;;;;;1.05;0.60;;;19.40;72.40;;;18.79;56.60;100043.44;9816502;29;96631;-85
2022/06/24 05:05:20;;;;;;;1.33;0.70;;;19.70;71.50;;;18.98;55.06;100039.66;9821066;29;96826;-85
2022/06/24 05:10:23;;;;;;;0.98;0.63;;;19.90;70.40;;;19.21;54.80;100044.34;9838103;29;98614;-85
2022/06/24 05:15:26;;;;;;;2.33;0.77;;;20.10;70.10;;;19.42;53.80;100038.44;9825803;29;98375;-84
2022/06/24 05:20:30;;;;;;;1.10;0.70;;;20.30;69.10;;;19.66;50.91;100042.03;9848282;29;96816;-84
2022/06/24 05:25:33;;;;;;;1.63;0.85;;;20.50;67.50;;;19.90;50.13;100040.22;9829979;29;97196;-84
2022/06/24 14:04:27;;;;;;;1.35;0.95;;;32.00;39.90;;;32.28;22.28;99639.03;10479779;27;96660;-89
2022/06/24 14:09:32;;;;;;;2.45;0.80;;;33.00;39.60;;;32.29;21.90;99635.16;10437915;27;96987;-88
2022/06/24 14:14:37;;;;;;;3.17;0.70;;;33.10;39.00;;;32.38;22.57;99633.19;10456878;27;97514;-90
2022/06/24 14:19:40;;;;;;;1.00;0.60;;;33.20;39.30;;;32.56;22.22;99626.53;10454440;27;96887;-92
2022/06/24 14:24:45;;;;;;;1.13;0.80;;;33.40;39.20;;;32.53;22.58;99621.69;10461914;27;96704;-90
2022/06/24 14:29:50;;;;;;;0.98;0.57;;;33.40;38.80;;;32.59;22.32;99617.63;10475464;27;96628;-90
2022/06/24 14:34:54;;;;;;;0.60;0.60;;;33.50;39.00;;;32.74;22.53;99613.50;10434297;27;97198;-89
2022/06/24 14:40:12;;;;;;;1.15;0.80;;;33.60;39.00;;;32.92;22.49;99606.03;10436567;27;96657;-89
2022/06/24 14:45:35;;;;;;;0.85;0.60;;;33.70;39.10;;;33.24;22.49;99605.38;10443472;27;98097;-89
2022/06/24 14:50:38;;;;;;;0.77;0.52;;;34.00;39.20;;;33.31;21.58;99596.59;10454989;27;96508;-90
2022/06/24 14:55:41;;;;;;;0.77;0.50;;;34.20;38.80;;;33.38;21.63;99599.59;10468036;27;98411;-89
2022/06/24 15:00:44;;;;;;;0.85;0.60;;;34.30;38.60;;;33.48;20.97;99590.19;10444851;27;98431;-87
2022/06/24 15:05:47;;;;;;;0.52;0.50;;;34.30;38.10;;;33.47;21.24;99583.06;10405981;28;96848;-88
2022/06/24 15:10:50;;;;;;;1.27;0.88;;;34.30;38.30;;;33.63;21.56;99586.81;10422152;28;96605;-87
2022/06/24 15:15:53;;;;;;;1.17;0.57;;;34.40;38.40;;;33.66;20.08;99591.66;10425367;28;96561;-87
2022/06/24 15:20:56;;;;;;;1.17;0.60;;;34.50;37.60;;;33.27;20.51;99587.38;10424099;27;96795;-88
2022/06/24 15:26:10;;;;;;;1.52;0.88;;;34.20;37.50;;;32.53;21.11;99577.69;10422578;28;97072;-88
2022/06/24 15:31:16;;;;;;;0.90;0.63;;;33.60;37.40;;;32.03;22.01;99571.94;10424292;28;96488;-87
2022/06/24 15:36:19;;;;;;;1.10;0.50;;;33.10;37.90;;;31.56;22.79;99575.38;10405578;28;96943;-88
2022/06/24 15:41:22;;;;;;;2.28;0.55;;;32.60;38.40;;;31.20;23.13;99574.81;10439826;27;96516;-87
2022/06/24 15:46:25;;;;;;;1.08;0.70;;;32.30;38.60;;;30.91;23.12;99571.50;10440255;27;96410;-87
2022/06/24 15:51:28;;;;;;;0.98;0.80;;;31.90;38.80;;;30.69;23.69;99571.56;10397375;28;97433;-87
2022/06/24 15:56:31;;;;;;;1.27;0.60;;;31.70;39.20;;;30.51;23.96;99573.41;10422903;28;96558;-87
2022/06/24 16:01:34;;;;;;;1.38;0.70;;;31.50;39.20;;;30.38;24.34;99555.94;10402819;28;97473;-87
2022/06/24 16:06:37;;;;;;;1.13;0.63;;;31.40;39.60;;;30.34;25.42;99545.91;10421382;27;96764;-87
2022/06/24 16:12:27;;;;;;;2.63;0.70;;;31.30;40.30;;;30.31;24.87;99541.06;10421995;27;96602;-87
2022/06/24 16:17:06;;;;;;;2.30;0.60;;;31.20;40.10;;;30.26;26.86;99535.72;10421833;28;96550;-87
2022/06/24 16:22:09;;;;;;;0.65;0.50;;;31.20;41.20;;;30.21;26.06;99524.88;10421998;28;96514;-87
2022/06/24 16:32:34;;;;;;;0.93;0.60;;;31.00;41.00;;;30.04;25.89;99533.78;10422204;28;97530;-88
2022/06/24 16:37:39;;;;;;;0.80;0.60;;;31.00;41.00;;;29.94;25.42;99531.31;10421244;27;96527;-87
2022/06/24 16:43:15;;;;;;;0.77;0.60;;;30.80;40.80;;;29.96;26.29;99529.88;10421561;27;96680;-87
2022/06/24 16:48:05;;;;;;;0.43;0.40;;;30.90;41.10;;;29.87;25.64;99534.50;10420122;27;96613;-89
2022/06/24 16:53:10;;;;;;;1.00;0.70;;;30.80;40.90;;;29.82;26.44;99546.38;10397439;28;96859;-89
2022/06/24 16:58:13;;;;;;;0.65;0.52;;;30.80;41.30;;;29.75;26.89;99553.41;10403085;28;96795;-89
2022/06/24 17:03:16;;;;;;;0.98;0.73;;;30.70;41.50;;;29.68;26.56;99563.97;10420432;28;96656;-89
2022/06/24 17:08:26;;;;;;;0.93;0.60;;;30.60;41.70;;;29.61;27.04;99560.84;10403269;28;96723;-89
2022/06/24 17:13:29;;;;;;;0.95;0.60;;;30.50;41.80;;;29.47;27.11;99571.81;10418859;28;96640;-89
2022/06/24 17:18:32;;;;;;;0.68;0.43;;;30.40;41.80;;;29.46;27.39;99559.25;10403765;28;96468;-89
2022/06/24 17:23:35;;;;;;;2.17;0.52;;;30.40;42.00;;;29.50;27.61;99552.03;10417696;28;96660;-89
2022/06/24 17:28:39;;;;;;;1.23;0.80;;;30.40;42.40;;;29.47;27.70;99556.22;10413544;28;96731;-88
2022/06/24 17:33:46;;;;;;;0.68;0.55;;;30.40;42.40;;;29.36;27.50;99560.28;10387589;28;98165;-89
2022/06/24 17:38:50;;;;;;;0.88;0.63;;;30.30;42.40;;;29.20;27.38;99564.47;10397078;28;97878;-90
2022/06/24 17:43:52;;;;;;;2.30;0.65;;;30.20;42.30;;;29.02;28.22;99564.28;10419027;28;96677;-90
2022/06/24 17:48:55;;;;;;;1.05;0.73;;;30.00;42.80;;;28.83;29.03;99566.31;10418713;27;96668;-89
2022/06/24 17:53:58;;;;;;;1.05;0.85;;;29.80;43.20;;;28.58;29.47;99555.88;10407093;27;97989;-88
2022/06/24 17:59:02;;;;;;;2.40;1.10;;;29.60;43.70;;;28.37;30.30;99549.97;10418534;27;98615;-86
2022/06/24 18:04:05;;;;;;;0.82;0.73;;;29.40;44.20;;;28.15;30.93;99558.81;10424298;27;97118;-87
2022/06/24 18:09:08;;;;;;;4.68;0.63;;;29.10;44.60;;;27.91;31.76;99559.75;10412715;27;97087;-88
2022/06/24 18:14:12;;;;;;;1.50;0.77;;;28.90;45.30;;;27.68;32.07;99544.25;10415972;28;96638;-89
2022/06/24 18:19:15;;;;;;;1.25;0.90;;;28.60;45.90;;;27.42;32.70;99544.63;10415809;28;96697;-88
2022/06/24 18:24:21;;;;;;;3.60;0.85;;;28.40;46.20;;;27.21;32.92;99552.28;10407709;28;96882;-89
2022/06/24 18:29:24;;;;;;;1.17;0.75;;;28.20;46.90;;;26.99;33.65;99554.75;10421451;27;97511;-88
2022/06/24 18:34:28;;;;;;;3.10;0.90;;;28.00;47.20;;;26.76;34.90;99553.66;10417364;27;96762;-88
2022/06/24 18:39:31;;;;;;;1.95;1.00;;;27.70;48.10;;;26.51;36.45;99552.03;10422926;27;97448;-88
2022/06/24 18:44:34;;;;;;;1.17;0.77;;;27.50;49.60;;;26.27;36.15;99541.06;10409167;28;97466;-89
2022/06/24 18:49:37;;;;;;;1.05;0.70;;;27.20;49.70;;;26.09;36.87;99536.34;10410034;28;96699;-89
2022/06/24 18:54:51;;;;;;;1.65;1.00;;;27.00;50.00;;;25.88;37.33;99541.94;10424110;28;96585;-88
2022/06/24 18:59:57;;;;;;;1.88;1.20;;;26.80;50.50;;;25.67;38.57;99540.47;10425801;27;97494;-88
2022/06/24 19:05:00;;;;;;;1.52;1.00;;;26.60;51.60;;;25.50;38.02;99538.13;10402992;28;97219;-88
2022/06/24 19:10:04;;;;;;;3.10;1.27;;;26.40;50.90;;;25.38;38.14;99528.69;10426276;27;97099;-89
2022/06/24 19:15:08;;;;;;;2.45;0.90;;;26.30;51.00;;;25.25;39.18;99517.34;10420514;28;96621;-88
2022/06/24 19:20:12;;;;;;;1.02;0.82;;;26.20;51.70;;;25.14;40.14;99529.38;10409222;27;97420;-89
2022/06/24 19:25:16;;;;;;;1.88;1.20;;;26.10;52.60;;;24.97;41.20;99531.59;10412460;27;97386;-89
2022/06/24 19:30:24;;;;;;;1.88;1.35;;;25.90;53.60;;;24.82;41.09;99532.44;10407192;28;96858;-88
2022/06/24 19:35:28;;;;;;;2.28;1.45;;;25.70;53.60;;;24.69;41.28;99536.56;10424971;28;96600;-89
2022/06/24 19:40:40;;;;;;;2.45;1.33;;;25.60;53.80;;;24.63;40.25;99537.69;10415756;27;98662;-88
2022/06/24 19:45:43;;;;;;;1.77;1.13;;;25.60;53.60;;;24.58;40.08;99550.47;10422342;27;96483;-89
2022/06/24 19:50:46;;;;;;;1.55;0.65;;;25.50;53.40;;;24.53;38.88;99567.59;10423053;27;96557;-88
2022/06/24 19:55:50;;;;;;;1.85;0.93;;;25.40;52.20;;;24.50;38.45;99587.16;10415233;28;96696;-88
2022/06/24 20:00:54;;;;;;;4.95;0.63;;;25.40;52.00;;;24.48;38.17;99600.22;10418323;27;96889;-88
2022/06/24 20:05:57;;;;;;;1.25;0.88;;;25.30;51.60;;;24.51;37.47;99603.16;10419662;28;96787;-87
2022/06/24 20:11:08;;;;;;;1.92;0.80;;;25.40;51.10;;;24.56;37.58;99597.72;10415692;28;97468;-88
2022/06/24 20:16:11;;;;;;;0.85;0.60;;;25.40;50.90;;;24.58;36.67;99600.16;10419313;27;97611;-88
2022/06/24 20:21:14;;;;;;;1.13;0.65;;;25.40;50.40;;;24.64;35.85;99592.81;10422863;27;96534;-88
2022/06/24 20:26:18;;;;;;;2.95;0.70;;;25.50;50.00;;;24.66;35.24;99602.34;10408411;27;96675;-87
2022/06/24 20:31:23;;;;;;;0.88;0.65;;;25.50;49.50;;;24.72;35.43;99612.09;10395034;28;96918;-88
2022/06/24 20:36:27;;;;;;;1.00;0.63;;;25.60;49.30;;;24.73;35.74;99600.16;10424822;27;96660;-88
2022/06/24 20:41:30;;;;;;;0.80;0.52;;;25.70;49.40;;;24.69;36.03;99584.66;10437471;27;96627;-88
2022/06/24 20:46:34;;;;;;;1.92;0.85;;;25.60;49.50;;;24.62;37.50;99600.44;10422045;27;96564;-87
2022/06/24 20:51:39;;;;;;;2.22;1.00;;;25.60;50.40;;;24.47;38.34;99614.84;10404697;28;96617;-87
2022/06/24 20:56:42;;;;;;;1.85;1.00;;;25.40;51.10;;;24.27;38.31;99618.38;10420669;28;96523;-87
2022/06/24 21:01:46;;;;;;;1.25;0.77;;;25.20;51.40;;;24.11;38.84;99622.16;10421842;27;96620;-87
2022/06/24 21:06:52;;;;;;;3.85;0.88;;;25.10;51.60;;;23.92;39.12;99619.97;10403807;28;96516;-87
2022/06/24 21:11:55;;;;;;;1.15;0.70;;;24.90;52.40;;;23.74;39.64;99625.91;10418901;28;96535;-88
2022/06/24 21:16:58;;;;;;;1.40;0.70;;;24.70;52.30;;;23.59;39.61;99637.53;10417586;27;96588;-87
2022/06/24 21:22:01;;;;;;;1.83;0.88;;;24.60;52.80;;;23.42;40.03;99628.78;10419503;28;96457;-88
2022/06/24 21:27:05;;;;;;;1.58;0.63;;;24.30;52.90;;;23.28;40.22;99641.22;10421171;27;97944;-87
2022/06/24 21:32:10;;;;;;;1.10;0.65;;;24.20;53.00;;;23.06;40.86;99634.06;10402220;28;98545;-87
2022/06/24 21:37:14;;;;;;;1.40;0.70;;;24.00;54.10;;;22.91;41.38;99639.38;10401852;27;96529;-88
2022/06/24 21:42:17;;;;;;;2.13;0.75;;;23.90;54.00;;;22.74;41.65;99636.84;10403764;27;96560;-90
2022/06/24 21:47:24;;;;;;;0.80;0.57;;;23.70;54.20;;;22.57;41.29;99633.47;10399448;27;97074;-89
2022/06/24 21:52:27;;;;;;;1.40;0.93;;;23.50;54.00;;;22.39;41.85;99621.16;10394895;28;96742;-89
2022/06/24 21:57:30;;;;;;;0.85;0.52;;;23.30;55.40;;;22.27;42.37;99624.03;10406340;27;96999;-89
2022/06/24 22:02:33;;;;;;;1.65;0.60;;;23.30;54.60;;;22.26;42.40;99624.31;10418453;27;98832;-89
2022/06/24 22:07:37;;;;;;;1.02;0.68;;;23.20;55.00;;;22.27;42.05;99612.41;10386526;27;96609;-89
2022/06/24 22:12:41;;;;;;;0.95;0.68;;;23.20;54.50;;;22.31;40.81;99617.06;10426681;27;96810;-89
2022/06/24 22:17:48;;;;;;;1.05;0.65;;;23.20;53.70;;;22.39;40.87;99621.97;10423379;28;96551;-89
2022/06/24 22:22:52;;;;;;;0.80;0.50;;;23.30;53.70;;;22.43;41.71;99606.84;10424879;28;96744;-87
2022/06/24 22:27:54;;;;;;;2.05;1.00;;;23.40;54.30;;;22.41;42.61;99608.16;10427410;27;96668;-87
2022/06/24 22:32:57;;;;;;;0.85;0.52;;;23.40;55.20;;;22.36;42.69;99622.47;10423400;28;96660;-87
2022/06/24 22:38:00;;;;;;;0.90;0.60;;;23.30;55.20;;;22.31;43.09;99617.06;10420049;28;96504;-88
2022/06/24 22:43:03;;;;;;;1.20;0.70;;;23.20;55.70;;;22.27;43.22;99625.94;10407613;28;96612;-88
2022/06/24 22:48:07;;;;;;;2.17;0.80;;;23.10;55.50;;;22.26;44.28;99622.41;10422204;27;96696;-89
2022/06/24 22:53:09;;;;;;;1.27;0.80;;;23.10;56.40;;;22.24;44.25;99612.91;10437836;27;96691;-90
2022/06/24 22:58:12;;;;;;;3.17;0.90;;;23.20;56.50;;;22.18;46.37;99617.47;10438982;27;96600;-90
2022/06/24 23:03:16;;;;;;;2.20;0.70;;;23.10;58.40;;;22.13;49.04;99618.25;10408617;28;96970;-89
2022/06/24 23:08:22;;;;;;;1.38;0.70;;;23.10;61.40;;;22.05;50.89;99597.03;10425189;27;97521;-90
2022/06/24 23:13:25;;;;;;;2.08;0.77;;;23.00;61.70;;;21.92;51.39;99613.69;10384550;28;96578;-90
2022/06/24 23:18:28;;;;;;;1.20;0.77;;;22.90;61.80;;;21.86;51.80;99607.41;10415096;27;97907;-90
2022/06/24 23:23:31;;;;;;;1.80;0.82;;;22.80;64.40;;;21.84;51.75;99611.47;10393444;27;96569;-91
2022/06/24 23:28:34;;;;;;;1.10;0.80;;;22.70;63.60;;;21.82;51.45;99608.19;10426323;27;96489;-90
2022/06/24 23:33:37;;;;;;;1.40;0.70;;;22.70;63.20;;;21.85;50.88;99607.69;10424667;28;96597;-90
2022/06/24 23:38:40;;;;;;;1.67;0.85;;;22.70;62.70;;;21.83;51.83;99607.09;10407138;27;97429;-90
2022/06/24 23:43:42;;;;;;;1.73;0.63;;;22.70;63.90;;;21.79;52.76;99603.28;10423903;28;96462;-89
2022/06/24 23:54:09;;;;;;;1.48;0.75;;;22.60;64.40;;;21.72;52.82;99603.50;10407067;28;97871;-89
2022/06/24 23:59:12;;;;;;;1.15;0.70;;;22.60;64.10;;;21.69;52.26;99581.56;10418402;27;96900;-89
